F/V Renaissance II — FMEW — position and weather

sailwx.info

Track history (hours):
 
Tides and Currents Weather Stations Pressure Air Temp Water Temp Dewpoint Dewpoint Depression Visibility Wind Speed Wind Dir Waves Ship Positions

F/V Renaissance II

Last reported at 2017-Dec-09 18:53 UTC. Time now 2017-Dec-14 04:35 UTC.
Position N 46°30' W 001°47'.

Length 18 m.

Type: Fishing. MMSI: 228216600.

Date/timePositionNaut miles runAvg speedWind from/ knotsBaromVisibWave heightAir tempDewpointWater temp
2017-Dec-09 18:53N 46°30' W 001°47'0 0.1
2017-Dec-09 18:31N 46°30' W 001°47'0 0.0
2017-Dec-09 18:01N 46°30' W 001°47'4 7.8
2017-Dec-09 17:31N 46°26' W 001°50'510.1
2017-Dec-09 17:01N 46°22' W 001°54'5 0.5
2017-Dec-09 06:48N 46°19' W 001°59'3 9.5
2017-Dec-09 06:29N 46°21' W 001°56'5 9.3
2017-Dec-09 06:00N 46°24' W 001°52'5 9.3
2017-Dec-09 05:31N 46°28' W 001°48'2 3.9
2017-Dec-09 05:01N 46°30' W 001°48'0 0.0
2017-Dec-09 04:31N 46°30' W 001°48'0 0.0
2017-Dec-09 04:01N 46°30' W 001°48'0 0.0
2017-Dec-09 03:31N 46°30' W 001°48'0 0.0
2017-Dec-09 03:01N 46°30' W 001°48'0 0.0
2017-Dec-09 02:31N 46°30' W 001°48'0 0.0
2017-Dec-09 02:01N 46°30' W 001°48'0 0.0
2017-Dec-09 01:31N 46°30' W 001°48'0 0.0
2017-Dec-09 01:00N 46°30' W 001°48'0 0.0
2017-Dec-09 00:30N 46°30' W 001°48'0 0.0
2017-Dec-09 00:01N 46°30' W 001°48'0 0.0
2017-Dec-08 23:31N 46°30' W 001°48'0 0.0
2017-Dec-08 23:00N 46°30' W 001°48'0 0.0
2017-Dec-08 22:30N 46°30' W 001°48'0 0.0
2017-Dec-08 22:00N 46°30' W 001°48'0 0.0
2017-Dec-08 21:30N 46°30' W 001°48'0 0.0
2017-Dec-08 21:00N 46°30' W 001°48'0 0.0
2017-Dec-08 20:31N 46°30' W 001°48'0 0.0
2017-Dec-08 20:00N 46°30' W 001°48'0 0.0
2017-Dec-08 19:30N 46°30' W 001°48'0 0.0
2017-Dec-08 19:01N 46°30' W 001°48'0 0.0
2017-Dec-08 18:31N 46°30' W 001°48'0 0.0
2017-Dec-08 18:01N 46°30' W 001°48'4 7.6
2017-Dec-08 17:31N 46°26' W 001°48'5 9.1
2017-Dec-08 17:01N 46°22' W 001°51'5 9.2
2017-Dec-08 16:31N 46°18' W 001°54'3 0.6
2017-Dec-08 10:52N 46°15' W 001°52'2 7.0
2017-Dec-08 10:30N 46°15' W 001°48'1 1.1
2017-Dec-08 10:00N 46°16' W 001°48'1 2.3
2017-Dec-08 09:30N 46°17' W 001°47'2 3.5
2017-Dec-08 08:56N 46°16' W 001°45'0 0.8
2017-Dec-08 08:29N 46°17' W 001°45'1 2.1
2017-Dec-08 07:59N 46°17' W 001°43'1 1.6
2017-Dec-08 07:30N 46°17' W 001°44'5 9.5
2017-Dec-08 07:01N 46°21' W 001°45'5 9.6
2017-Dec-08 06:31N 46°26' W 001°46'4 7.5
2017-Dec-08 06:01N 46°30' W 001°47'0 0.0
2017-Dec-07 15:30N 46°30' W 001°47'0 0.0
2017-Dec-07 15:00N 46°30' W 001°47'0 0.2
2017-Dec-07 14:30N 46°30' W 001°47'2 4.5
2017-Dec-07 14:00N 46°28' W 001°47'3 5.4
2017-Dec-07 13:30N 46°25' W 001°46'3 6.6
2017-Dec-07 13:00N 46°22' W 001°46'2 4.6
2017-Dec-07 12:30N 46°20' W 001°45'0 0.7
2017-Dec-07 12:00N 46°19' W 001°45'2 3.3
2017-Dec-07 11:30N 46°18' W 001°43'2 3.1
2017-Dec-07 11:00N 46°18' W 001°45'1 1.0
2017-Dec-07 10:25N 46°17' W 001°45'1 3.0
2017-Dec-07 09:58N 46°16' W 001°43'2 3.6
2017-Dec-07 09:30N 46°17' W 001°46'0 0.5
2017-Dec-07 08:44N 46°17' W 001°45'0 1.5
2017-Dec-07 08:29N 46°17' W 001°44'1 1.1
2017-Dec-07 08:00N 46°18' W 001°44'2 4.7
2017-Dec-07 07:30N 46°20' W 001°46'4 8.1
2017-Dec-07 07:00N 46°24' W 001°47'4 8.2
2017-Dec-07 06:30N 46°28' W 001°47'2 4.0
2017-Dec-07 06:00N 46°30' W 001°47'0 0.0
2017-Dec-07 05:30N 46°30' W 001°47'0 0.0
2017-Dec-07 05:00N 46°30' W 001°47'0 0.0
2017-Dec-07 04:30N 46°30' W 001°47'0 0.0
2017-Dec-07 04:00N 46°30' W 001°47'0 0.0
2017-Dec-07 03:30N 46°30' W 001°47'0 0.0
2017-Dec-07 03:00N 46°30' W 001°47'0 0.0
2017-Dec-07 02:30N 46°30' W 001°47'0 0.1
2017-Dec-07 02:00N 46°30' W 001°47'0 0.1
2017-Dec-07 01:30N 46°30' W 001°47'0 0.0
2017-Dec-07 01:00N 46°30' W 001°47'0 0.0
2017-Dec-07 00:30N 46°30' W 001°47'0 0.0
2017-Dec-07 00:00N 46°30' W 001°47'0 0.0
2017-Dec-06 23:30N 46°30' W 001°47'0 0.0
2017-Dec-06 23:00N 46°30' W 001°47'0 0.0
2017-Dec-06 22:30N 46°30' W 001°47'0 0.0
2017-Dec-06 22:00N 46°30' W 001°47'0 0.0
2017-Dec-06 21:30N 46°30' W 001°47'0 0.0
2017-Dec-06 21:00N 46°30' W 001°47'  
2017-Dec-04 03:20N 46°30' W 001°47'0 0.0
2017-Dec-04 03:00N 46°30' W 001°47'0 0.2
2017-Dec-04 02:30N 46°30' W 001°47'0 0.3
2017-Dec-04 02:00N 46°30' W 001°47'0 0.0
2017-Dec-04 01:30N 46°30' W 001°47'2 3.6
2017-Dec-04 01:00N 46°28' W 001°47'0 0.4
2017-Dec-04 00:30N 46°28' W 001°48'1 2.8
2017-Dec-04 00:00N 46°28' W 001°50'2 3.8
2017-Dec-03 23:30N 46°29' W 001°52'2 3.7
2017-Dec-03 23:00N 46°30' W 001°55'2 3.6
2017-Dec-03 22:30N 46°30' W 001°57'2 3.8
2017-Dec-03 22:00N 46°31' W 001°60'2 4.1
2017-Dec-03 21:28N 46°32' W 002°03'2 3.8
2017-Dec-03 21:00N 46°33' W 002°05'2 3.7
2017-Dec-03 20:27N 46°33' W 002°08'2 3.6
2017-Dec-03 19:57N 46°34' W 002°10'4 0.1
2017-Dec-02 05:39N 46°36' W 002°15'2 9.5
2017-Dec-02 05:27N 46°35' W 002°13'5 9.6
2017-Dec-02 04:57N 46°33' W 002°06'4 9.4
2017-Dec-02 04:30N 46°32' W 002°01'5 9.4
2017-Dec-02 04:00N 46°30' W 001°54'5 9.4
2017-Dec-02 03:30N 46°28' W 001°48'1 2.8
2017-Dec-02 03:00N 46°30' W 001°47'0 0.0
2017-Dec-01 11:50N 46°29' W 001°48'3 8.2
2017-Dec-01 11:30N 46°27' W 001°50'5 9.7
2017-Dec-01 11:00N 46°24' W 001°55'5 9.6
2017-Dec-01 10:28N 46°21' W 002°01'3 0.3
2017-Dec-01 02:15N 46°19' W 002°04'2 5.0
2017-Dec-01 01:57N 46°20' W 002°02'2 4.9
2017-Dec-01 01:28N 46°21' W 001°60'2 4.8
2017-Dec-01 01:00N 46°23' W 001°57'2 4.6
2017-Dec-01 00:30N 46°24' W 001°55'2 4.6
2017-Dec-01 00:00N 46°26' W 001°52'2 4.5
2017-Nov-30 23:30N 46°27' W 001°49'2 4.5
2017-Nov-30 23:00N 46°29' W 001°47'1 2.2
2017-Nov-30 22:30N 46°30' W 001°47'0 0.3
2017-Nov-30 22:00N 46°30' W 001°47'0 0.7
2017-Nov-30 21:30N 46°30' W 001°48'3 6.1
2017-Nov-30 21:00N 46°28' W 001°51'3 6.5
2017-Nov-30 20:30N 46°26' W 001°55'3 6.3
2017-Nov-30 20:00N 46°26' W 001°60'3 6.2
2017-Nov-30 19:30N 46°25' W 002°04'3 6.1
2017-Nov-30 19:00N 46°24' W 002°08'9 0.6
2017-Nov-30 03:24N 46°31' W 002°18'2 5.4
2017-Nov-30 03:00N 46°31' W 002°15'3 5.3
2017-Nov-30 02:30N 46°30' W 002°11'3 5.2
2017-Nov-30 02:00N 46°30' W 002°07'2 5.0
2017-Nov-30 01:30N 46°30' W 002°03'2 4.9
2017-Nov-30 01:00N 46°30' W 001°60'2 4.8
2017-Nov-30 00:30N 46°29' W 001°56'2 4.8
2017-Nov-30 00:00N 46°29' W 001°53'2 4.7
2017-Nov-29 23:30N 46°28' W 001°50'2 3.8
2017-Nov-29 23:00N 46°29' W 001°47'1 1.6
2017-Nov-29 22:30N 46°30' W 001°47'1 1.3
2017-Nov-29 22:00N 46°29' W 001°47'1 2.8
2017-Nov-29 21:30N 46°28' W 001°48'3 6.1
2017-Nov-29 21:00N 46°28' W 001°53'3 6.0
2017-Nov-29 20:30N 46°29' W 001°57'3 6.0
2017-Nov-29 20:00N 46°29' W 002°01'3 6.0
2017-Nov-29 19:30N 46°29' W 002°06'3 5.9
2017-Nov-29 19:00N 46°29' W 002°10'  
Track history (hours):
 
Tides and Currents Weather Stations Pressure Air Temp Water Temp Dewpoint Dewpoint Depression Visibility Wind Speed Wind Dir Waves Ship Positions

F/V Renaissance II

Last reported at 2017-Dec-09 18:53 UTC. Time now 2017-Dec-14 04:35 UTC.
Position N 46°30' W 001°47'.

Length 18 m.

Type: Fishing. MMSI: 228216600.

Date/timePositionNaut miles runAvg speedWind from/ knotsBaromVisibWave heightAir tempDewpointWater temp
2017-Dec-09 18:53N 46°30' W 001°47'0 0.1
2017-Dec-09 18:31N 46°30' W 001°47'0 0.0
2017-Dec-09 18:01N 46°30' W 001°47'4 7.8
2017-Dec-09 17:31N 46°26' W 001°50'510.1
2017-Dec-09 17:01N 46°22' W 001°54'5 0.5
2017-Dec-09 06:48N 46°19' W 001°59'3 9.5
2017-Dec-09 06:29N 46°21' W 001°56'5 9.3
2017-Dec-09 06:00N 46°24' W 001°52'5 9.3
2017-Dec-09 05:31N 46°28' W 001°48'2 3.9
2017-Dec-09 05:01N 46°30' W 001°48'0 0.0
2017-Dec-09 04:31N 46°30' W 001°48'0 0.0
2017-Dec-09 04:01N 46°30' W 001°48'0 0.0
2017-Dec-09 03:31N 46°30' W 001°48'0 0.0
2017-Dec-09 03:01N 46°30' W 001°48'0 0.0
2017-Dec-09 02:31N 46°30' W 001°48'0 0.0
2017-Dec-09 02:01N 46°30' W 001°48'0 0.0
2017-Dec-09 01:31N 46°30' W 001°48'0 0.0
2017-Dec-09 01:00N 46°30' W 001°48'0 0.0
2017-Dec-09 00:30N 46°30' W 001°48'0 0.0
2017-Dec-09 00:01N 46°30' W 001°48'0 0.0
2017-Dec-08 23:31N 46°30' W 001°48'0 0.0
2017-Dec-08 23:00N 46°30' W 001°48'0 0.0
2017-Dec-08 22:30N 46°30' W 001°48'0 0.0
2017-Dec-08 22:00N 46°30' W 001°48'0 0.0
2017-Dec-08 21:30N 46°30' W 001°48'0 0.0
2017-Dec-08 21:00N 46°30' W 001°48'0 0.0
2017-Dec-08 20:31N 46°30' W 001°48'0 0.0
2017-Dec-08 20:00N 46°30' W 001°48'0 0.0
2017-Dec-08 19:30N 46°30' W 001°48'0 0.0
2017-Dec-08 19:01N 46°30' W 001°48'0 0.0
2017-Dec-08 18:31N 46°30' W 001°48'0 0.0
2017-Dec-08 18:01N 46°30' W 001°48'4 7.6
2017-Dec-08 17:31N 46°26' W 001°48'5 9.1
2017-Dec-08 17:01N 46°22' W 001°51'5 9.2
2017-Dec-08 16:31N 46°18' W 001°54'3 0.6
2017-Dec-08 10:52N 46°15' W 001°52'2 7.0
2017-Dec-08 10:30N 46°15' W 001°48'1 1.1
2017-Dec-08 10:00N 46°16' W 001°48'1 2.3
2017-Dec-08 09:30N 46°17' W 001°47'2 3.5
2017-Dec-08 08:56N 46°16' W 001°45'0 0.8
2017-Dec-08 08:29N 46°17' W 001°45'1 2.1
2017-Dec-08 07:59N 46°17' W 001°43'1 1.6
2017-Dec-08 07:30N 46°17' W 001°44'5 9.5
2017-Dec-08 07:01N 46°21' W 001°45'5 9.6
2017-Dec-08 06:31N 46°26' W 001°46'4 7.5
2017-Dec-08 06:01N 46°30' W 001°47'0 0.0
2017-Dec-07 15:30N 46°30' W 001°47'0 0.0
2017-Dec-07 15:00N 46°30' W 001°47'0 0.2
2017-Dec-07 14:30N 46°30' W 001°47'2 4.5
2017-Dec-07 14:00N 46°28' W 001°47'3 5.4
2017-Dec-07 13:30N 46°25' W 001°46'3 6.6
2017-Dec-07 13:00N 46°22' W 001°46'2 4.6
2017-Dec-07 12:30N 46°20' W 001°45'0 0.7
2017-Dec-07 12:00N 46°19' W 001°45'2 3.3
2017-Dec-07 11:30N 46°18' W 001°43'2 3.1
2017-Dec-07 11:00N 46°18' W 001°45'1 1.0
2017-Dec-07 10:25N 46°17' W 001°45'1 3.0
2017-Dec-07 09:58N 46°16' W 001°43'2 3.6
2017-Dec-07 09:30N 46°17' W 001°46'0 0.5
2017-Dec-07 08:44N 46°17' W 001°45'0 1.5
2017-Dec-07 08:29N 46°17' W 001°44'1 1.1
2017-Dec-07 08:00N 46°18' W 001°44'2 4.7
2017-Dec-07 07:30N 46°20' W 001°46'4 8.1
2017-Dec-07 07:00N 46°24' W 001°47'4 8.2
2017-Dec-07 06:30N 46°28' W 001°47'2 4.0
2017-Dec-07 06:00N 46°30' W 001°47'0 0.0
2017-Dec-07 05:30N 46°30' W 001°47'0 0.0
2017-Dec-07 05:00N 46°30' W 001°47'0 0.0
2017-Dec-07 04:30N 46°30' W 001°47'0 0.0
2017-Dec-07 04:00N 46°30' W 001°47'0 0.0
2017-Dec-07 03:30N 46°30' W 001°47'0 0.0
2017-Dec-07 03:00N 46°30' W 001°47'0 0.0
2017-Dec-07 02:30N 46°30' W 001°47'0 0.1
2017-Dec-07 02:00N 46°30' W 001°47'0 0.1
2017-Dec-07 01:30N 46°30' W 001°47'0 0.0
2017-Dec-07 01:00N 46°30' W 001°47'0 0.0
2017-Dec-07 00:30N 46°30' W 001°47'0 0.0
2017-Dec-07 00:00N 46°30' W 001°47'0 0.0
2017-Dec-06 23:30N 46°30' W 001°47'0 0.0
2017-Dec-06 23:00N 46°30' W 001°47'0 0.0
2017-Dec-06 22:30N 46°30' W 001°47'0 0.0
2017-Dec-06 22:00N 46°30' W 001°47'0 0.0
2017-Dec-06 21:30N 46°30' W 001°47'0 0.0
2017-Dec-06 21:00N 46°30' W 001°47'  
2017-Dec-04 03:20N 46°30' W 001°47'0 0.0
2017-Dec-04 03:00N 46°30' W 001°47'0 0.2
2017-Dec-04 02:30N 46°30' W 001°47'0 0.3
2017-Dec-04 02:00N 46°30' W 001°47'0 0.0
2017-Dec-04 01:30N 46°30' W 001°47'2 3.6
2017-Dec-04 01:00N 46°28' W 001°47'0 0.4
2017-Dec-04 00:30N 46°28' W 001°48'1 2.8
2017-Dec-04 00:00N 46°28' W 001°50'2 3.8
2017-Dec-03 23:30N 46°29' W 001°52'2 3.7
2017-Dec-03 23:00N 46°30' W 001°55'2 3.6
2017-Dec-03 22:30N 46°30' W 001°57'2 3.8
2017-Dec-03 22:00N 46°31' W 001°60'2 4.1
2017-Dec-03 21:28N 46°32' W 002°03'2 3.8
2017-Dec-03 21:00N 46°33' W 002°05'2 3.7
2017-Dec-03 20:27N 46°33' W 002°08'2 3.6
2017-Dec-03 19:57N 46°34' W 002°10'4 0.1
2017-Dec-02 05:39N 46°36' W 002°15'2 9.5
2017-Dec-02 05:27N 46°35' W 002°13'5 9.6
2017-Dec-02 04:57N 46°33' W 002°06'4 9.4
2017-Dec-02 04:30N 46°32' W 002°01'5 9.4
2017-Dec-02 04:00N 46°30' W 001°54'5 9.4
2017-Dec-02 03:30N 46°28' W 001°48'1 2.8
2017-Dec-02 03:00N 46°30' W 001°47'0 0.0
2017-Dec-01 11:50N 46°29' W 001°48'3 8.2
2017-Dec-01 11:30N 46°27' W 001°50'5 9.7
2017-Dec-01 11:00N 46°24' W 001°55'5 9.6
2017-Dec-01 10:28N 46°21' W 002°01'3 0.3
2017-Dec-01 02:15N 46°19' W 002°04'2 5.0
2017-Dec-01 01:57N 46°20' W 002°02'2 4.9
2017-Dec-01 01:28N 46°21' W 001°60'2 4.8
2017-Dec-01 01:00N 46°23' W 001°57'2 4.6
2017-Dec-01 00:30N 46°24' W 001°55'2 4.6
2017-Dec-01 00:00N 46°26' W 001°52'2 4.5
2017-Nov-30 23:30N 46°27' W 001°49'2 4.5
2017-Nov-30 23:00N 46°29' W 001°47'1 2.2
2017-Nov-30 22:30N 46°30' W 001°47'0 0.3
2017-Nov-30 22:00N 46°30' W 001°47'0 0.7
2017-Nov-30 21:30N 46°30' W 001°48'3 6.1
2017-Nov-30 21:00N 46°28' W 001°51'3 6.5
2017-Nov-30 20:30N 46°26' W 001°55'3 6.3
2017-Nov-30 20:00N 46°26' W 001°60'3 6.2
2017-Nov-30 19:30N 46°25' W 002°04'3 6.1
2017-Nov-30 19:00N 46°24' W 002°08'9 0.6
2017-Nov-30 03:24N 46°31' W 002°18'2 5.4
2017-Nov-30 03:00N 46°31' W 002°15'3 5.3
2017-Nov-30 02:30N 46°30' W 002°11'3 5.2
2017-Nov-30 02:00N 46°30' W 002°07'2 5.0
2017-Nov-30 01:30N 46°30' W 002°03'2 4.9
2017-Nov-30 01:00N 46°30' W 001°60'2 4.8
2017-Nov-30 00:30N 46°29' W 001°56'2 4.8
2017-Nov-30 00:00N 46°29' W 001°53'2 4.7
2017-Nov-29 23:30N 46°28' W 001°50'2 3.8
2017-Nov-29 23:00N 46°29' W 001°47'1 1.6
2017-Nov-29 22:30N 46°30' W 001°47'1 1.3
2017-Nov-29 22:00N 46°29' W 001°47'1 2.8
2017-Nov-29 21:30N 46°28' W 001°48'3 6.1
2017-Nov-29 21:00N 46°28' W 001°53'3 6.0
2017-Nov-29 20:30N 46°29' W 001°57'3 6.0
2017-Nov-29 20:00N 46°29' W 002°01'3 6.0
2017-Nov-29 19:30N 46°29' W 002°06'3 5.9
2017-Nov-29 19:00N 46°29' W 002°10'  

Dump ship's entire track history